sensor_id;sensor_type;location;lat;lon;timestamp;pressure;altitude;pressure_sealevel;temperature;humidity
49461;BME280;35355;49.198;-0.368;2023-02-04T00:00:10;103153.16;;;8.92;86.95
49461;BME280;35355;49.198;-0.368;2023-02-04T00:02:37;103151.66;;;8.90;87.22
49461;BME280;35355;49.198;-0.368;2023-02-04T00:05:03;103154.78;;;8.87;87.31
49461;BME280;35355;49.198;-0.368;2023-02-04T00:07:29;103151.41;;;8.85;87.43
49461;BME280;35355;49.198;-0.368;2023-02-04T00:09:54;103155.63;;;8.87;87.40
49461;BME280;35355;49.198;-0.368;2023-02-04T00:12:19;103156.47;;;8.88;87.16
49461;BME280;35355;49.198;-0.368;2023-02-04T00:14:45;103151.22;;;8.86;87.36
49461;BME280;35355;49.198;-0.368;2023-02-04T00:17:10;103150.19;;;8.87;87.06
49461;BME280;35355;49.198;-0.368;2023-02-04T00:19:40;103156.00;;;8.84;87.08
49461;BME280;35355;49.198;-0.368;2023-02-04T00:22:05;103148.22;;;8.81;87.48
49461;BME280;35355;49.198;-0.368;2023-02-04T00:24:32;103146.34;;;8.82;87.47
49461;BME280;35355;49.198;-0.368;2023-02-04T00:26:58;103149.25;;;8.80;87.39
49461;BME280;35355;49.198;-0.368;2023-02-04T00:29:23;103146.53;;;8.80;87.58
49461;BME280;35355;49.198;-0.368;2023-02-04T00:31:49;103157.25;;;8.82;87.47
49461;BME280;35355;49.198;-0.368;2023-02-04T00:34:14;103152.19;;;8.78;87.49
49461;BME280;35355;49.198;-0.368;2023-02-04T00:36:39;103149.66;;;8.77;87.39
49461;BME280;35355;49.198;-0.368;2023-02-04T00:39:05;103160.53;;;8.77;87.39
49461;BME280;35355;49.198;-0.368;2023-02-04T00:41:30;103155.09;;;8.77;87.61
49461;BME280;35355;49.198;-0.368;2023-02-04T00:43:55;103155.09;;;8.77;87.33
49461;BME280;35355;49.198;-0.368;2023-02-04T00:46:21;103146.25;;;8.75;87.57
49461;BME280;35355;49.198;-0.368;2023-02-04T00:48:46;103149.84;;;8.75;87.48
49461;BME280;35355;49.198;-0.368;2023-02-04T00:51:11;103156.31;;;8.74;87.58
49461;BME280;35355;49.198;-0.368;2023-02-04T00:53:37;103152.91;;;8.72;87.68
49461;BME280;35355;49.198;-0.368;2023-02-04T00:56:02;103159.22;;;8.73;87.53
49461;BME280;35355;49.198;-0.368;2023-02-04T00:58:27;103162.97;;;8.72;87.53
49461;BME280;35355;49.198;-0.368;2023-02-04T01:00:53;103155.19;;;8.69;87.67
49461;BME280;35355;49.198;-0.368;2023-02-04T01:03:18;103141.56;;;8.69;87.52
49461;BME280;35355;49.198;-0.368;2023-02-04T01:05:43;103142.41;;;8.69;87.48
49461;BME280;35355;49.198;-0.368;2023-02-04T01:08:09;103148.72;;;8.70;87.49
49461;BME280;35355;49.198;-0.368;2023-02-04T01:10:35;103159.59;;;8.70;87.83
49461;BME280;35355;49.198;-0.368;2023-02-04T01:13:00;103162.72;;;8.67;87.68
49461;BME280;35355;49.198;-0.368;2023-02-04T01:15:26;103167.09;;;8.68;87.67
49461;BME280;35355;49.198;-0.368;2023-02-04T01:17:51;103159.31;;;8.65;87.64
49461;BME280;35355;49.198;-0.368;2023-02-04T01:20:16;103157.66;;;8.64;87.76
49461;BME280;35355;49.198;-0.368;2023-02-04T01:22:42;103157.81;;;8.62;87.54
49461;BME280;35355;49.198;-0.368;2023-02-04T01:25:07;103164.13;;;8.63;87.61
49461;BME280;35355;49.198;-0.368;2023-02-04T01:27:32;103157.81;;;8.62;87.56
49461;BME280;35355;49.198;-0.368;2023-02-04T01:29:58;103159.50;;;8.63;87.65
49461;BME280;35355;49.198;-0.368;2023-02-04T01:32:23;103175.00;;;8.63;87.88
49461;BME280;35355;49.198;-0.368;2023-02-04T01:34:49;103162.41;;;8.62;87.72
49461;BME280;35355;49.198;-0.368;2023-02-04T01:37:14;103161.38;;;8.63;87.66
49461;BME280;35355;49.198;-0.368;2023-02-04T01:39:39;103167.88;;;8.62;87.72
49461;BME280;35355;49.198;-0.368;2023-02-04T01:42:05;103164.50;;;8.59;87.63
49461;BME280;35355;49.198;-0.368;2023-02-04T01:44:31;103164.50;;;8.59;87.96
49461;BME280;35355;49.198;-0.368;2023-02-04T01:46:56;103159.06;;;8.59;87.57
49461;BME280;35355;49.198;-0.368;2023-02-04T01:49:22;103156.31;;;8.59;87.85
49461;BME280;35355;49.198;-0.368;2023-02-04T01:51:48;103150.22;;;8.57;87.82
49461;BME280;35355;49.198;-0.368;2023-02-04T01:54:14;103163.81;;;8.57;87.78
49461;BME280;35355;49.198;-0.368;2023-02-04T01:56:44;103153.78;;;8.58;87.78
49461;BME280;35355;49.198;-0.368;2023-02-04T01:59:15;103157.72;;;8.55;87.71
49461;BME280;35355;49.198;-0.368;2023-02-04T02:01:45;103160.25;;;8.57;87.72
49461;BME280;35355;49.198;-0.368;2023-02-04T02:04:13;103162.16;;;8.56;87.76
49461;BME280;35355;49.198;-0.368;2023-02-04T02:06:43;103159.44;;;8.56;87.79
49461;BME280;35355;49.198;-0.368;2023-02-04T02:09:09;103160.66;;;8.54;87.83
49461;BME280;35355;49.198;-0.368;2023-02-04T02:11:35;103164.88;;;8.56;88.26
49461;BME280;35355;49.198;-0.368;2023-02-04T02:14:02;103168.25;;;8.58;87.87
49461;BME280;35355;49.198;-0.368;2023-02-04T02:16:27;103161.09;;;8.57;87.81
49461;BME280;35355;49.198;-0.368;2023-02-04T02:18:52;103146.84;;;8.55;87.89
49461;BME280;35355;49.198;-0.368;2023-02-04T02:21:23;103151.25;;;8.56;87.77
49461;BME280;35355;49.198;-0.368;2023-02-04T02:23:53;103160.66;;;8.54;87.75
49461;BME280;35355;49.198;-0.368;2023-02-04T02:26:22;103156.41;;;8.51;87.88
49461;BME280;35355;49.198;-0.368;2023-02-04T02:28:48;103156.41;;;8.51;87.63
49461;BME280;35355;49.198;-0.368;2023-02-04T02:31:16;103153.69;;;8.51;87.86
49461;BME280;35355;49.198;-0.368;2023-02-04T02:33:43;103155.59;;;8.51;87.84
49461;BME280;35355;49.198;-0.368;2023-02-04T02:36:09;103148.63;;;8.48;88.02
49461;BME280;35355;49.198;-0.368;2023-02-04T02:38:35;103142.16;;;8.49;87.68
49461;BME280;35355;49.198;-0.368;2023-02-04T02:41:01;103151.34;;;8.48;87.76
49461;BME280;35355;49.198;-0.368;2023-02-04T02:43:27;103141.28;;;8.49;87.96
49461;BME280;35355;49.198;-0.368;2023-02-04T02:45:54;103139.63;;;8.48;87.77
49461;BME280;35355;49.198;-0.368;2023-02-04T02:48:21;103147.78;;;8.48;87.88
49461;BME280;35355;49.198;-0.368;2023-02-04T02:50:47;103144.19;;;8.47;87.67
49461;BME280;35355;49.198;-0.368;2023-02-04T02:53:15;103145.44;;;8.45;87.74
49461;BME280;35355;49.198;-0.368;2023-02-04T02:55:42;103154.44;;;8.45;87.76
49461;BME280;35355;49.198;-0.368;2023-02-04T02:58:15;103155.09;;;8.47;87.69
49461;BME280;35355;49.198;-0.368;2023-02-04T03:00:42;103153.63;;;8.45;87.90
49461;BME280;35355;49.198;-0.368;2023-02-04T03:03:13;103156.97;;;8.47;87.73
49461;BME280;35355;49.198;-0.368;2023-02-04T03:05:42;103158.88;;;8.46;87.74
49461;BME280;35355;49.198;-0.368;2023-02-04T03:08:10;103163.06;;;8.49;87.96
49461;BME280;35355;49.198;-0.368;2023-02-04T03:10:38;103157.16;;;8.45;87.75
49461;BME280;35355;49.198;-0.368;2023-02-04T03:13:03;103160.53;;;8.47;87.65
49461;BME280;35355;49.198;-0.368;2023-02-04T03:15:30;103164.31;;;8.46;87.51
49461;BME280;35355;49.198;-0.368;2023-02-04T03:17:56;103164.31;;;8.46;87.90
49461;BME280;35355;49.198;-0.368;2023-02-04T03:20:27;103155.47;;;8.44;87.81
49461;BME280;35355;49.198;-0.368;2023-02-04T03:22:54;103155.28;;;8.46;87.72
49461;BME280;35355;49.198;-0.368;2023-02-04T03:25:20;103156.50;;;8.43;87.77
49461;BME280;35355;49.198;-0.368;2023-02-04T03:27:49;103158.19;;;8.44;87.73
49461;BME280;35355;49.198;-0.368;2023-02-04T03:30:15;103165.97;;;8.47;87.86
49461;BME280;35355;49.198;-0.368;2023-02-04T03:32:41;103159.88;;;8.45;87.72
49461;BME280;35355;49.198;-0.368;2023-02-04T03:35:06;103163.63;;;8.44;87.79
49461;BME280;35355;49.198;-0.368;2023-02-04T03:37:31;103152.06;;;8.42;87.56
49461;BME280;35355;49.198;-0.368;2023-02-04T03:39:57;103155.47;;;8.44;87.59
49461;BME280;35355;49.198;-0.368;2023-02-04T03:42:22;103152.56;;;8.46;87.89
49461;BME280;35355;49.198;-0.368;2023-02-04T03:44:48;103153.78;;;8.43;87.92
49461;BME280;35355;49.198;-0.368;2023-02-04T03:47:14;103165.34;;;8.45;87.76
49461;BME280;35355;49.198;-0.368;2023-02-04T03:49:39;103165.50;;;8.43;87.59
49461;BME280;35355;49.198;-0.368;2023-02-04T03:52:05;103160.25;;;8.42;87.95
49461;BME280;35355;49.198;-0.368;2023-02-04T03:54:30;103161.25;;;8.41;87.95
49461;BME280;35355;49.198;-0.368;2023-02-04T03:56:55;103160.25;;;8.42;88.00
49461;BME280;35355;49.198;-0.368;2023-02-04T03:59:21;103160.25;;;8.42;87.87
49461;BME280;35355;49.198;-0.368;2023-02-04T04:01:46;103169.22;;;8.42;87.91
49461;BME280;35355;49.198;-0.368;2023-02-04T04:04:11;103160.44;;;8.40;87.94
49461;BME280;35355;49.198;-0.368;2023-02-04T04:06:37;103162.13;;;8.41;88.06
49461;BME280;35355;49.198;-0.368;2023-02-04T04:09:02;103164.16;;;8.39;88.23
49461;BME280;35355;49.198;-0.368;2023-02-04T04:11:29;103169.44;;;8.41;88.16
49461;BME280;35355;49.198;-0.368;2023-02-04T04:13:54;103170.09;;;8.43;88.08
49461;BME280;35355;49.198;-0.368;2023-02-04T04:16:19;103163.16;;;8.40;88.11
49461;BME280;35355;49.198;-0.368;2023-02-04T04:18:45;103168.78;;;8.39;88.12
49461;BME280;35355;49.198;-0.368;2023-02-04T04:21:11;103175.44;;;8.36;88.01
49461;BME280;35355;49.198;-0.368;2023-02-04T04:23:36;103164.56;;;8.36;87.93
49461;BME280;35355;49.198;-0.368;2023-02-04T04:26:02;103166.44;;;8.36;88.01
49461;BME280;35355;49.198;-0.368;2023-02-04T04:28:27;103165.75;;;8.34;88.26
49461;BME280;35355;49.198;-0.368;2023-02-04T04:30:52;103175.63;;;8.35;87.98
49461;BME280;35355;49.198;-0.368;2023-02-04T04:33:18;103172.91;;;8.35;88.11
49461;BME280;35355;49.198;-0.368;2023-02-04T04:35:43;103171.38;;;8.32;88.07
49461;BME280;35355;49.198;-0.368;2023-02-04T04:38:08;103180.22;;;8.34;88.22
49461;BME280;35355;49.198;-0.368;2023-02-04T04:40:34;103178.34;;;8.35;88.34
49461;BME280;35355;49.198;-0.368;2023-02-04T04:42:59;103183.78;;;8.35;87.75
49461;BME280;35355;49.198;-0.368;2023-02-04T04:45:25;103168.47;;;8.34;88.33
49461;BME280;35355;49.198;-0.368;2023-02-04T04:47:50;103183.78;;;8.35;88.21
49461;BME280;35355;49.198;-0.368;2023-02-04T04:50:16;103168.84;;;8.31;88.07
49461;BME280;35355;49.198;-0.368;2023-02-04T04:52:41;103173.09;;;8.33;88.15
49461;BME280;35355;49.198;-0.368;2023-02-04T04:55:07;103174.97;;;8.33;88.30
49461;BME280;35355;49.198;-0.368;2023-02-04T04:57:32;103176.66;;;8.34;88.42
49461;BME280;35355;49.198;-0.368;2023-02-04T04:59:58;103184.63;;;8.35;88.19
49461;BME280;35355;49.198;-0.368;2023-02-04T05:02:23;103177.50;;;8.34;88.18
49461;BME280;35355;49.198;-0.368;2023-02-04T05:04:48;103190.25;;;8.34;88.12
49461;BME280;35355;49.198;-0.368;2023-02-04T05:07:14;103191.13;;;8.34;88.03
49461;BME280;35355;49.198;-0.368;2023-02-04T05:09:39;103186.69;;;8.33;87.99
49461;BME280;35355;49.198;-0.368;2023-02-04T05:12:05;103194.66;;;8.35;88.32
49461;BME280;35355;49.198;-0.368;2023-02-04T05:14:30;103189.41;;;8.33;88.34
49461;BME280;35355;49.198;-0.368;2023-02-04T05:16:56;103189.22;;;8.35;88.28
49461;BME280;35355;49.198;-0.368;2023-02-04T05:19:21;103186.69;;;8.33;88.06
49461;BME280;35355;49.198;-0.368;2023-02-04T05:21:46;103193.66;;;8.36;88.43
49461;BME280;35355;49.198;-0.368;2023-02-04T05:24:12;103197.41;;;8.35;88.11
49461;BME280;35355;49.198;-0.368;2023-02-04T05:26:37;103187.16;;;8.37;88.06
49461;BME280;35355;49.198;-0.368;2023-02-04T05:29:03;103183.41;;;8.38;88.04
49461;BME280;35355;49.198;-0.368;2023-02-04T05:51:41;103205.53;;;7.59;87.75
49461;BME280;35355;49.198;-0.368;2023-02-04T05:54:07;103197.56;;;7.57;87.85
49461;BME280;35355;49.198;-0.368;2023-02-04T05:56:32;103199.72;;;7.62;88.05
49461;BME280;35355;49.198;-0.368;2023-02-04T05:58:58;103209.53;;;7.71;88.03
49461;BME280;35355;49.198;-0.368;2023-02-04T06:01:23;103213.03;;;7.80;88.57
49461;BME280;35355;49.198;-0.368;2023-02-04T06:03:48;103206.88;;;7.86;88.53
49461;BME280;35355;49.198;-0.368;2023-02-04T06:06:14;103210.72;;;7.92;88.22
49461;BME280;35355;49.198;-0.368;2023-02-04T06:08:39;103206.59;;;7.96;88.27
49461;BME280;35355;49.198;-0.368;2023-02-04T06:11:04;103210.66;;;8.00;88.17
49461;BME280;35355;49.198;-0.368;2023-02-04T06:13:30;103213.84;;;8.03;88.54
49461;BME280;35355;49.198;-0.368;2023-02-04T06:15:55;103210.94;;;8.05;88.35
49461;BME280;35355;49.198;-0.368;2023-02-04T06:18:21;103224.84;;;8.10;88.55
49461;BME280;35355;49.198;-0.368;2023-02-04T06:20:46;103220.91;;;8.13;88.42
49461;BME280;35355;49.198;-0.368;2023-02-04T06:23:11;103222.41;;;8.15;88.50
49461;BME280;35355;49.198;-0.368;2023-02-04T06:25:37;103225.78;;;8.17;88.64
49461;BME280;35355;49.198;-0.368;2023-02-04T06:28:02;103221.19;;;8.18;88.00
49461;BME280;35355;49.198;-0.368;2023-02-04T06:30:28;103222.69;;;8.20;88.36
49461;BME280;35355;49.198;-0.368;2023-02-04T06:32:53;103227.94;;;8.22;88.34
49461;BME280;35355;49.198;-0.368;2023-02-04T06:35:18;103223.38;;;8.22;88.17
49461;BME280;35355;49.198;-0.368;2023-02-04T06:37:44;103214.53;;;8.20;87.96
49461;BME280;35355;49.198;-0.368;2023-02-04T06:40:10;103215.41;;;8.21;88.25
49461;BME280;35355;49.198;-0.368;2023-02-04T06:42:36;103220.16;;;8.19;88.13
49461;BME280;35355;49.198;-0.368;2023-02-04T06:45:02;103218.31;;;8.19;88.49
49461;BME280;35355;49.198;-0.368;2023-02-04T06:47:27;103223.25;;;8.16;88.15
49461;BME280;35355;49.198;-0.368;2023-02-04T06:49:53;103220.34;;;8.17;88.44
49461;BME280;35355;49.198;-0.368;2023-02-04T06:52:18;103222.06;;;8.18;88.07
49461;BME280;35355;49.198;-0.368;2023-02-04T06:54:43;103215.94;;;8.16;88.06
49461;BME280;35355;49.198;-0.368;2023-02-04T06:57:09;103224.09;;;8.16;87.84
49461;BME280;35355;49.198;-0.368;2023-02-04T06:59:36;103225.78;;;8.17;88.00
49461;BME280;35355;49.198;-0.368;2023-02-04T07:02:02;103234.13;;;8.16;88.16
49461;BME280;35355;49.198;-0.368;2023-02-04T07:04:28;103234.97;;;8.16;88.26
49461;BME280;35355;49.198;-0.368;2023-02-04T07:06:53;103238.19;;;8.20;88.34
49461;BME280;35355;49.198;-0.368;2023-02-04T07:09:19;103230.84;;;8.20;87.71
49461;BME280;35355;49.198;-0.368;2023-02-04T07:11:44;103237.63;;;8.24;88.03
49461;BME280;35355;49.198;-0.368;2023-02-04T07:14:10;103237.63;;;8.24;87.70
49461;BME280;35355;49.198;-0.368;2023-02-04T07:16:36;103247.50;;;8.25;88.01
49461;BME280;35355;49.198;-0.368;2023-02-04T07:19:01;103250.22;;;8.25;87.47
49461;BME280;35355;49.198;-0.368;2023-02-04T07:21:27;103240.34;;;8.24;87.71
49461;BME280;35355;49.198;-0.368;2023-02-04T07:23:52;103244.78;;;8.25;87.74
49461;BME280;35355;49.198;-0.368;2023-02-04T07:26:18;103245.41;;;8.28;87.57
49461;BME280;35355;49.198;-0.368;2023-02-04T07:28:43;103254.41;;;8.28;87.53
49461;BME280;35355;49.198;-0.368;2023-02-04T07:31:09;103243.91;;;8.25;87.45
49461;BME280;35355;49.198;-0.368;2023-02-04T07:33:34;103250.88;;;8.28;87.49
49461;BME280;35355;49.198;-0.368;2023-02-04T07:36:00;103246.44;;;8.26;87.54
49461;BME280;35355;49.198;-0.368;2023-02-04T07:38:25;103251.50;;;8.30;87.14
49461;BME280;35355;49.198;-0.368;2023-02-04T07:40:50;103249.84;;;8.29;87.14
49461;BME280;35355;49.198;-0.368;2023-02-04T07:43:16;103254.91;;;8.32;87.05
49461;BME280;35355;49.198;-0.368;2023-02-04T07:45:41;103268.16;;;8.35;87.07
49461;BME280;35355;49.198;-0.368;2023-02-04T07:48:06;103262.72;;;8.35;87.20
49461;BME280;35355;49.198;-0.368;2023-02-04T07:50:32;103264.22;;;8.37;86.94
49461;BME280;35355;49.198;-0.368;2023-02-04T07:52:57;103263.16;;;8.38;86.83
49461;BME280;35355;49.198;-0.368;2023-02-04T07:55:22;103269.28;;;8.40;86.71
49461;BME280;35355;49.198;-0.368;2023-02-04T07:57:48;103266.75;;;8.39;86.52
49461;BME280;35355;49.198;-0.368;2023-02-04T08:00:13;103268.28;;;8.41;86.46
49461;BME280;35355;49.198;-0.368;2023-02-04T08:02:40;103259.91;;;8.43;86.42
49461;BME280;35355;49.198;-0.368;2023-02-04T08:05:06;103250.06;;;8.42;86.55
49461;BME280;35355;49.198;-0.368;2023-02-04T08:07:32;103257.19;;;8.43;86.02
49461;BME280;35355;49.198;-0.368;2023-02-04T08:09:57;103267.75;;;8.46;86.30
49461;BME280;35355;49.198;-0.368;2023-02-04T08:12:22;103265.22;;;8.45;86.01
49461;BME280;35355;49.198;-0.368;2023-02-04T08:14:48;103261.78;;;8.42;85.91
49461;BME280;35355;49.198;-0.368;2023-02-04T08:17:13;103254.47;;;8.43;85.78
49461;BME280;35355;49.198;-0.368;2023-02-04T08:19:39;103265.22;;;8.45;85.70
49461;BME280;35355;49.198;-0.368;2023-02-04T08:22:05;103264.34;;;8.44;85.58
49461;BME280;35355;49.198;-0.368;2023-02-04T08:24:31;103261.44;;;8.46;85.65
49461;BME280;35355;49.198;-0.368;2023-02-04T08:26:56;103261.94;;;8.49;85.35
49461;BME280;35355;49.198;-0.368;2023-02-04T08:29:23;103260.88;;;8.50;85.41
49461;BME280;35355;49.198;-0.368;2023-02-04T08:31:50;103259.00;;;8.51;85.16
49461;BME280;35355;49.198;-0.368;2023-02-04T08:34:15;103264.91;;;8.54;84.93
49461;BME280;35355;49.198;-0.368;2023-02-04T08:36:40;103255.72;;;8.55;84.84
49461;BME280;35355;49.198;-0.368;2023-02-04T08:39:06;103259.09;;;8.57;84.81
49461;BME280;35355;49.198;-0.368;2023-02-04T08:41:31;103262.13;;;8.63;84.63
49461;BME280;35355;49.198;-0.368;2023-02-04T08:43:57;103263.91;;;8.70;84.49
49461;BME280;35355;49.198;-0.368;2023-02-04T08:46:23;103266.44;;;8.72;84.24
49461;BME280;35355;49.198;-0.368;2023-02-04T08:48:48;103269.09;;;8.80;84.14
49461;BME280;35355;49.198;-0.368;2023-02-04T08:51:13;103280.25;;;8.85;84.09
49461;BME280;35355;49.198;-0.368;2023-02-04T08:53:39;103283.47;;;8.89;83.73
49461;BME280;35355;49.198;-0.368;2023-02-04T08:56:05;103281.00;;;8.94;83.64
49461;BME280;35355;49.198;-0.368;2023-02-04T08:58:31;103286.06;;;8.97;83.28
49461;BME280;35355;49.198;-0.368;2023-02-04T09:00:56;103291.34;;;8.99;83.42
49461;BME280;35355;49.198;-0.368;2023-02-04T09:03:22;103286.94;;;8.98;83.28
49461;BME280;35355;49.198;-0.368;2023-02-04T09:05:47;103286.75;;;8.99;83.15
49461;BME280;35355;49.198;-0.368;2023-02-04T09:08:12;103298.47;;;9.00;82.75
49461;BME280;35355;49.198;-0.368;2023-02-04T09:10:40;103293.69;;;9.02;82.66
49461;BME280;35355;49.198;-0.368;2023-02-04T09:13:05;103293.47;;;9.03;82.66
49461;BME280;35355;49.198;-0.368;2023-02-04T09:15:33;103292.28;;;9.06;82.08
49461;BME280;35355;49.198;-0.368;2023-02-04T09:17:58;103296.31;;;9.10;82.38
49461;BME280;35355;49.198;-0.368;2023-02-04T09:20:35;103292.19;;;9.14;82.48
49461;BME280;35355;49.198;-0.368;2023-02-04T09:23:01;103297.06;;;9.19;81.96
49461;BME280;35355;49.198;-0.368;2023-02-04T09:25:27;103304.03;;;9.21;81.98
49461;BME280;35355;49.198;-0.368;2023-02-04T09:27:52;103306.56;;;9.23;82.08
49461;BME280;35355;49.198;-0.368;2023-02-04T09:30:18;103307.00;;;9.26;82.03
49461;BME280;35355;49.198;-0.368;2023-02-04T09:32:43;103315.63;;;9.30;81.91
49461;BME280;35355;49.198;-0.368;2023-02-04T09:35:08;103318.56;;;9.28;81.77
49461;BME280;35355;49.198;-0.368;2023-02-04T09:37:34;103314.63;;;9.31;81.81
49461;BME280;35355;49.198;-0.368;2023-02-04T09:39:59;103321.38;;;9.35;81.58
49461;BME280;35355;49.198;-0.368;2023-02-04T09:42:25;103328.97;;;9.40;81.58
49461;BME280;35355;49.198;-0.368;2023-02-04T09:44:50;103330.31;;;9.44;81.56
49461;BME280;35355;49.198;-0.368;2023-02-04T09:47:17;103325.50;;;9.46;81.42
49461;BME280;35355;49.198;-0.368;2023-02-04T09:49:46;103334.53;;;9.46;81.19
49461;BME280;35355;49.198;-0.368;2023-02-04T09:52:13;103328.22;;;9.46;81.34
49461;BME280;35355;49.198;-0.368;2023-02-04T09:54:40;103333.28;;;9.49;81.27
49461;BME280;35355;49.198;-0.368;2023-02-04T09:57:19;103336.69;;;9.51;81.57
49461;BME280;35355;49.198;-0.368;2023-02-04T09:59:45;103338.75;;;9.49;80.96
49461;BME280;35355;49.198;-0.368;2023-02-04T10:02:22;103342.97;;;9.52;81.29
49461;BME280;35355;49.198;-0.368;2023-02-04T10:04:50;103348.03;;;9.55;80.79
49461;BME280;35355;49.198;-0.368;2023-02-04T10:07:18;103345.13;;;9.56;80.89
49461;BME280;35355;49.198;-0.368;2023-02-04T10:09:47;103348.53;;;9.58;80.75
49461;BME280;35355;49.198;-0.368;2023-02-04T10:12:13;103353.97;;;9.58;80.90
49461;BME280;35355;49.198;-0.368;2023-02-04T10:14:39;103354.44;;;9.62;80.75
49461;BME280;35355;49.198;-0.368;2023-02-04T10:17:04;103354.63;;;9.60;80.61
49461;BME280;35355;49.198;-0.368;2023-02-04T10:19:32;103358.19;;;9.61;80.66
49461;BME280;35355;49.198;-0.368;2023-02-04T10:21:58;103361.59;;;9.63;80.84
49461;BME280;35355;49.198;-0.368;2023-02-04T10:24:25;103365.81;;;9.65;80.56
49461;BME280;35355;49.198;-0.368;2023-02-04T10:26:51;103359.13;;;9.68;80.61
49461;BME280;35355;49.198;-0.368;2023-02-04T10:29:20;103364.56;;;9.68;80.29
49461;BME280;35355;49.198;-0.368;2023-02-04T10:31:47;103365.03;;;9.72;80.46
49461;BME280;35355;49.198;-0.368;2023-02-04T10:34:16;103362.13;;;9.73;80.36
49461;BME280;35355;49.198;-0.368;2023-02-04T10:36:44;103357.88;;;9.71;80.07
49461;BME280;35355;49.198;-0.368;2023-02-04T10:41:36;103373.22;;;9.72;80.32
49461;BME280;35355;49.198;-0.368;2023-02-04T10:44:08;103368.41;;;9.74;80.46
49461;BME280;35355;49.198;-0.368;2023-02-04T10:46:35;103370.94;;;9.75;80.66
49461;BME280;35355;49.198;-0.368;2023-02-04T10:49:15;103376.03;;;9.78;80.68
49461;BME280;35355;49.198;-0.368;2023-02-04T10:51:41;103376.88;;;9.79;80.59
49461;BME280;35355;49.198;-0.368;2023-02-04T10:54:10;103387.78;;;9.79;80.86
49461;BME280;35355;49.198;-0.368;2023-02-04T10:59:23;103384.00;;;9.80;80.30
49461;BME280;35355;49.198;-0.368;2023-02-04T11:01:53;103378.56;;;9.80;80.52
49461;BME280;35355;49.198;-0.368;2023-02-04T11:04:19;103381.47;;;9.78;80.50
49461;BME280;35355;49.198;-0.368;2023-02-04T11:06:44;103380.63;;;9.78;80.22
49461;BME280;35355;49.198;-0.368;2023-02-04T11:09:12;103379.81;;;9.77;80.36
49461;BME280;35355;49.198;-0.368;2023-02-04T11:11:44;103372.28;;;9.79;80.37
49461;BME280;35355;49.198;-0.368;2023-02-04T11:14:27;103381.28;;;9.80;80.52
49461;BME280;35355;49.198;-0.368;2023-02-04T11:16:54;103373.97;;;9.80;80.40
49461;BME280;35355;49.198;-0.368;2023-02-04T11:19:37;103364.72;;;9.81;80.68
49461;BME280;35355;49.198;-0.368;2023-02-04T11:22:19;103372.06;;;9.81;80.21
49461;BME280;35355;49.198;-0.368;2023-02-04T11:24:45;103368.97;;;9.84;80.14
49461;BME280;35355;49.198;-0.368;2023-02-04T11:27:24;103366.13;;;9.92;80.48
49461;BME280;35355;49.198;-0.368;2023-02-04T11:29:51;103363.84;;;9.96;79.92
49461;BME280;35355;49.198;-0.368;2023-02-04T11:32:29;103374.19;;;10.00;80.29
49461;BME280;35355;49.198;-0.368;2023-02-04T11:35:07;103374.19;;;10.00;80.51
49461;BME280;35355;49.198;-0.368;2023-02-04T11:37:44;103380.03;;;9.97;79.97
49461;BME280;35355;49.198;-0.368;2023-02-04T11:40:32;103380.69;;;9.99;80.23
49461;BME280;35355;49.198;-0.368;2023-02-04T11:43:18;103379.81;;;9.99;80.40
49461;BME280;35355;49.198;-0.368;2023-02-04T11:45:44;103371.66;;;9.99;79.81
49461;BME280;35355;49.198;-0.368;2023-02-04T11:48:19;103375.88;;;10.01;80.35
49461;BME280;35355;49.198;-0.368;2023-02-04T11:50:59;103384.69;;;10.04;79.89
49461;BME280;35355;49.198;-0.368;2023-02-04T11:53:31;103379.44;;;10.02;79.54
49461;BME280;35355;49.198;-0.368;2023-02-04T11:55:57;103379.63;;;10.00;79.50
49461;BME280;35355;49.198;-0.368;2023-02-04T11:58:23;103367.22;;;9.98;79.66
49461;BME280;35355;49.198;-0.368;2023-02-04T12:00:51;103377.50;;;9.96;79.41
49461;BME280;35355;49.198;-0.368;2023-02-04T12:05:45;103397.81;;;9.93;79.97
49461;BME280;35355;49.198;-0.368;2023-02-04T12:13:22;103391.31;;;9.94;79.85
49461;BME280;35355;49.198;-0.368;2023-02-04T12:16:00;103380.78;;;9.91;79.96
49461;BME280;35355;49.198;-0.368;2023-02-04T12:18:26;103380.50;;;9.86;80.00
49461;BME280;35355;49.198;-0.368;2023-02-04T12:20:53;103389.94;;;9.83;79.87
49461;BME280;35355;49.198;-0.368;2023-02-04T12:23:18;103384.00;;;9.80;79.93
49461;BME280;35355;49.198;-0.368;2023-02-04T12:25:44;103375.19;;;9.78;79.80
49461;BME280;35355;49.198;-0.368;2023-02-04T12:28:11;103382.34;;;9.79;79.94
49461;BME280;35355;49.198;-0.368;2023-02-04T12:30:36;103377.28;;;9.76;79.99
49461;BME280;35355;49.198;-0.368;2023-02-04T12:33:01;103376.41;;;9.75;80.12
49461;BME280;35355;49.198;-0.368;2023-02-04T12:35:27;103371.16;;;9.74;80.11
49461;BME280;35355;49.198;-0.368;2023-02-04T12:37:52;103366.72;;;9.73;79.95
49461;BME280;35355;49.198;-0.368;2023-02-04T12:40:19;103365.03;;;9.72;80.22
49461;BME280;35355;49.198;-0.368;2023-02-04T12:42:45;103372.66;;;9.76;80.21
49461;BME280;35355;49.198;-0.368;2023-02-04T12:45:12;103370.38;;;9.80;80.03
49461;BME280;35355;49.198;-0.368;2023-02-04T12:47:38;103367.25;;;9.83;80.42
49461;BME280;35355;49.198;-0.368;2023-02-04T12:50:05;103366.88;;;9.86;80.12
49461;BME280;35355;49.198;-0.368;2023-02-04T12:52:30;103365.84;;;9.87;80.00
49461;BME280;35355;49.198;-0.368;2023-02-04T12:54:56;103360.59;;;9.86;80.24
49461;BME280;35355;49.198;-0.368;2023-02-04T12:57:21;103365.66;;;9.89;80.25
49461;BME280;35355;49.198;-0.368;2023-02-04T12:59:47;103366.50;;;9.89;79.81
49461;BME280;35355;49.198;-0.368;2023-02-04T13:02:13;103366.88;;;9.86;80.15
49461;BME280;35355;49.198;-0.368;2023-02-04T13:04:39;103366.03;;;9.86;79.73
49461;BME280;35355;49.198;-0.368;2023-02-04T13:07:05;103362.47;;;9.85;79.95
49461;BME280;35355;49.198;-0.368;2023-02-04T13:09:32;103359.75;;;9.85;79.89
49461;BME280;35355;49.198;-0.368;2023-02-04T13:11:58;103362.66;;;9.83;79.70
49461;BME280;35355;49.198;-0.368;2023-02-04T13:14:23;103363.25;;;9.79;80.13
49461;BME280;35355;49.198;-0.368;2023-02-04T13:16:49;103366.81;;;9.79;80.17
49461;BME280;35355;49.198;-0.368;2023-02-04T13:19:14;103360.72;;;9.77;80.20